sensor_id;sensor_type;location;lat;lon;timestamp;pressure;altitude;pressure_sealevel;temperature;humidity
64025;BME280;50266;57.446;26.936;2023-03-16T00:00:40;99125.52;;;-1.94;100.0
64025;BME280;50266;57.446;26.936;2023-03-16T00:01:40;99122.12;;;-1.9;100.0
64025;BME280;50266;57.446;26.936;2023-03-16T00:02:40;99126.11;;;-1.91;100.0
64025;BME280;50266;57.446;26.936;2023-03-16T00:03:40;99122.86;;;-1.94;100.0
64025;BME280;50266;57.446;26.936;2023-03-16T00:04:40;99125.83;;;-1.9;100.0
64025;BME280;50266;57.446;26.936;2023-03-16T00:05:41;99131.67;;;-1.89;100.0
64025;BME280;50266;57.446;26.936;2023-03-16T00:06:40;99135.05;;;-1.93;100.0
64025;BME280;50266;57.446;26.936;2023-03-16T00:07:41;99132.77;;;-1.93;100.0
64025;BME280;50266;57.446;26.936;2023-03-16T00:08:40;99135.6;;;-1.99;100.0
64025;BME280;50266;57.446;26.936;2023-03-16T00:09:40;99133.96;;;-2.01;100.0
64025;BME280;50266;57.446;26.936;2023-03-16T00:10:41;99129.3;;;-1.98;100.0
64025;BME280;50266;57.446;26.936;2023-03-16T00:11:41;99131.7;;;-1.94;100.0
64025;BME280;50266;57.446;26.936;2023-03-16T00:12:41;99132.33;;;-1.98;100.0
64025;BME280;50266;57.446;26.936;2023-03-16T00:13:41;99137.31;;;-1.95;100.0
64025;BME280;50266;57.446;26.936;2023-03-16T00:14:44;99134.66;;;-1.97;100.0
64025;BME280;50266;57.446;26.936;2023-03-16T00:15:49;99132.06;;;-1.95;100.0
64025;BME280;50266;57.446;26.936;2023-03-16T00:16:46;99132.84;;;-2.01;100.0
64025;BME280;50266;57.446;26.936;2023-03-16T00:17:46;99135.13;;;-2.02;100.0
64025;BME280;50266;57.446;26.936;2023-03-16T00:18:46;99137.91;;;-2.03;100.0
64025;BME280;50266;57.446;26.936;2023-03-16T00:19:50;99135.69;;;-2.09;100.0
64025;BME280;50266;57.446;26.936;2023-03-16T00:20:50;99135.39;;;-2.08;100.0
64025;BME280;50266;57.446;26.936;2023-03-16T00:21:50;99139.98;;;-2.1;100.0
64025;BME280;50266;57.446;26.936;2023-03-16T00:22:47;99139.88;;;-2.04;100.0
64025;BME280;50266;57.446;26.936;2023-03-16T00:23:47;99137.34;;;-1.94;100.0
64025;BME280;50266;57.446;26.936;2023-03-16T00:24:47;99137.95;;;-2.0;100.0
64025;BME280;50266;57.446;26.936;2023-03-16T00:25:47;99133.51;;;-2.05;100.0
64025;BME280;50266;57.446;26.936;2023-03-16T00:26:47;99133.31;;;-2.01;100.0
64025;BME280;50266;57.446;26.936;2023-03-16T00:27:47;99138.11;;;-2.04;100.0
64025;BME280;50266;57.446;26.936;2023-03-16T00:28:47;99136.39;;;-2.05;100.0
64025;BME280;50266;57.446;26.936;2023-03-16T00:29:47;99140.09;;;-2.03;100.0
64025;BME280;50266;57.446;26.936;2023-03-16T00:30:47;99135.41;;;-2.03;100.0
64025;BME280;50266;57.446;26.936;2023-03-16T00:31:47;99131.51;;;-2.12;100.0
64025;BME280;50266;57.446;26.936;2023-03-16T00:32:47;99133.95;;;-2.05;100.0
64025;BME280;50266;57.446;26.936;2023-03-16T00:33:47;99134.62;;;-2.06;100.0
64025;BME280;50266;57.446;26.936;2023-03-16T00:34:47;99127.65;;;-2.05;100.0
64025;BME280;50266;57.446;26.936;2023-03-16T00:35:47;99131.5;;;-2.05;100.0
64025;BME280;50266;57.446;26.936;2023-03-16T00:36:47;99130.28;;;-2.01;100.0
64025;BME280;50266;57.446;26.936;2023-03-16T00:37:47;99129.39;;;-1.97;100.0
64025;BME280;50266;57.446;26.936;2023-03-16T00:38:47;99133.19;;;-1.9;100.0
64025;BME280;50266;57.446;26.936;2023-03-16T00:39:47;99134.08;;;-1.82;100.0
64025;BME280;50266;57.446;26.936;2023-03-16T00:40:47;99135.31;;;-1.84;100.0
64025;BME280;50266;57.446;26.936;2023-03-16T00:41:47;99136.97;;;-1.94;100.0
64025;BME280;50266;57.446;26.936;2023-03-16T00:42:47;99135.86;;;-1.96;100.0
64025;BME280;50266;57.446;26.936;2023-03-16T00:43:47;99130.91;;;-1.95;100.0
64025;BME280;50266;57.446;26.936;2023-03-16T00:44:47;99138.05;;;-1.99;100.0
64025;BME280;50266;57.446;26.936;2023-03-16T00:45:47;99134.2;;;-2.02;100.0
64025;BME280;50266;57.446;26.936;2023-03-16T00:46:47;99138.92;;;-1.99;100.0
64025;BME280;50266;57.446;26.936;2023-03-16T00:47:47;99142.92;;;-1.96;100.0
64025;BME280;50266;57.446;26.936;2023-03-16T00:48:47;99140.07;;;-2.0;100.0
64025;BME280;50266;57.446;26.936;2023-03-16T00:49:47;99141.03;;;-2.07;100.0
64025;BME280;50266;57.446;26.936;2023-03-16T00:50:47;99137.21;;;-1.98;100.0
64025;BME280;50266;57.446;26.936;2023-03-16T00:51:47;99140.63;;;-2.01;100.0
64025;BME280;50266;57.446;26.936;2023-03-16T00:52:47;99141.15;;;-2.08;100.0
64025;BME280;50266;57.446;26.936;2023-03-16T00:53:47;99139.79;;;-2.11;100.0
64025;BME280;50266;57.446;26.936;2023-03-16T00:54:47;99145.62;;;-2.0;100.0
64025;BME280;50266;57.446;26.936;2023-03-16T00:55:47;99145.59;;;-2.02;100.0
64025;BME280;50266;57.446;26.936;2023-03-16T00:56:47;99147.34;;;-2.02;100.0
64025;BME280;50266;57.446;26.936;2023-03-16T00:57:47;99148.84;;;-2.08;100.0
64025;BME280;50266;57.446;26.936;2023-03-16T00:58:47;99147.37;;;-2.15;100.0
64025;BME280;50266;57.446;26.936;2023-03-16T00:59:47;99146.76;;;-2.18;100.0
64025;BME280;50266;57.446;26.936;2023-03-16T01:00:47;99145.8;;;-2.21;100.0
64025;BME280;50266;57.446;26.936;2023-03-16T01:01:47;99148.86;;;-2.14;100.0
64025;BME280;50266;57.446;26.936;2023-03-16T01:02:47;99142.7;;;-2.13;100.0
64025;BME280;50266;57.446;26.936;2023-03-16T01:03:47;99147.62;;;-2.17;100.0
64025;BME280;50266;57.446;26.936;2023-03-16T01:04:47;99147.73;;;-2.23;100.0
64025;BME280;50266;57.446;26.936;2023-03-16T01:05:47;99143.41;;;-2.23;100.0
64025;BME280;50266;57.446;26.936;2023-03-16T01:06:48;99146.32;;;-2.23;100.0
64025;BME280;50266;57.446;26.936;2023-03-16T01:07:48;99148.94;;;-2.23;100.0
64025;BME280;50266;57.446;26.936;2023-03-16T01:08:47;99149.0;;;-2.24;100.0
64025;BME280;50266;57.446;26.936;2023-03-16T01:09:47;99146.66;;;-2.23;100.0
64025;BME280;50266;57.446;26.936;2023-03-16T01:10:47;99153.34;;;-2.27;100.0
64025;BME280;50266;57.446;26.936;2023-03-16T01:11:47;99145.44;;;-2.27;100.0
64025;BME280;50266;57.446;26.936;2023-03-16T01:12:48;99147.43;;;-2.28;100.0
64025;BME280;50266;57.446;26.936;2023-03-16T01:13:49;99148.92;;;-2.32;100.0
64025;BME280;50266;57.446;26.936;2023-03-16T01:14:48;99151.0;;;-2.3;100.0
64025;BME280;50266;57.446;26.936;2023-03-16T01:15:51;99147.5;;;-2.29;100.0
64025;BME280;50266;57.446;26.936;2023-03-16T01:16:48;99146.12;;;-2.31;100.0
64025;BME280;50266;57.446;26.936;2023-03-16T01:17:48;99146.09;;;-2.38;100.0
64025;BME280;50266;57.446;26.936;2023-03-16T01:18:48;99145.73;;;-2.44;100.0
64025;BME280;50266;57.446;26.936;2023-03-16T01:19:48;99145.98;;;-2.43;100.0
64025;BME280;50266;57.446;26.936;2023-03-16T01:20:48;99144.32;;;-2.44;100.0
64025;BME280;50266;57.446;26.936;2023-03-16T01:21:48;99144.12;;;-2.43;100.0
64025;BME280;50266;57.446;26.936;2023-03-16T01:22:48;99146.44;;;-2.44;100.0
64025;BME280;50266;57.446;26.936;2023-03-16T01:23:48;99145.17;;;-2.46;100.0
64025;BME280;50266;57.446;26.936;2023-03-16T01:24:48;99147.79;;;-2.47;100.0
64025;BME280;50266;57.446;26.936;2023-03-16T01:25:48;99145.48;;;-2.52;100.0
64025;BME280;50266;57.446;26.936;2023-03-16T01:26:48;99145.59;;;-2.48;100.0
64025;BME280;50266;57.446;26.936;2023-03-16T01:27:48;99144.97;;;-2.56;100.0
64025;BME280;50266;57.446;26.936;2023-03-16T01:28:48;99150.28;;;-2.6;100.0
64025;BME280;50266;57.446;26.936;2023-03-16T01:29:48;99150.08;;;-2.52;100.0
64025;BME280;50266;57.446;26.936;2023-03-16T01:30:49;99152.98;;;-2.53;100.0
64025;BME280;50266;57.446;26.936;2023-03-16T01:31:48;99155.81;;;-2.51;100.0
64025;BME280;50266;57.446;26.936;2023-03-16T01:32:48;99153.26;;;-2.54;100.0
64025;BME280;50266;57.446;26.936;2023-03-16T01:33:48;99156.73;;;-2.57;100.0
64025;BME280;50266;57.446;26.936;2023-03-16T01:34:48;99157.53;;;-2.53;100.0
64025;BME280;50266;57.446;26.936;2023-03-16T01:35:55;99154.23;;;-2.54;100.0
64025;BME280;50266;57.446;26.936;2023-03-16T01:36:52;99159.72;;;-2.35;100.0
64025;BME280;50266;57.446;26.936;2023-03-16T01:37:52;99161.09;;;-2.39;100.0
64025;BME280;50266;57.446;26.936;2023-03-16T01:38:52;99158.98;;;-2.46;100.0
64025;BME280;50266;57.446;26.936;2023-03-16T01:39:52;99164.36;;;-2.5;100.0
64025;BME280;50266;57.446;26.936;2023-03-16T01:40:52;99165.36;;;-2.55;100.0
64025;BME280;50266;57.446;26.936;2023-03-16T01:41:52;99158.94;;;-2.53;100.0
64025;BME280;50266;57.446;26.936;2023-03-16T01:42:59;99161.59;;;-2.46;100.0
64025;BME280;50266;57.446;26.936;2023-03-16T01:43:57;99161.57;;;-2.49;100.0
64025;BME280;50266;57.446;26.936;2023-03-16T01:44:58;99159.84;;;-2.49;100.0
64025;BME280;50266;57.446;26.936;2023-03-16T01:46:09;99161.91;;;-2.48;100.0
64025;BME280;50266;57.446;26.936;2023-03-16T01:46:59;99166.56;;;-2.48;100.0
64025;BME280;50266;57.446;26.936;2023-03-16T01:47:59;99164.69;;;-2.46;100.0
64025;BME280;50266;57.446;26.936;2023-03-16T01:49:15;99163.49;;;-2.46;100.0
64025;BME280;50266;57.446;26.936;2023-03-16T01:50:04;99163.62;;;-2.51;100.0
64025;BME280;50266;57.446;26.936;2023-03-16T01:51:04;99163.59;;;-2.53;100.0
64025;BME280;50266;57.446;26.936;2023-03-16T01:53:08;99163.73;;;-2.55;100.0
64025;BME280;50266;57.446;26.936;2023-03-16T01:54:10;99167.89;;;-2.54;100.0
64025;BME280;50266;57.446;26.936;2023-03-16T01:55:09;99169.1;;;-2.55;100.0
64025;BME280;50266;57.446;26.936;2023-03-16T01:56:09;99168.05;;;-2.54;100.0
64025;BME280;50266;57.446;26.936;2023-03-16T01:57:10;99166.19;;;-2.55;100.0
64025;BME280;50266;57.446;26.936;2023-03-16T01:58:09;99167.84;;;-2.54;100.0
64025;BME280;50266;57.446;26.936;2023-03-16T01:59:11;99168.78;;;-2.52;100.0
64025;BME280;50266;57.446;26.936;2023-03-16T02:00:14;99171.02;;;-2.5;100.0
64025;BME280;50266;57.446;26.936;2023-03-16T02:01:12;99173.29;;;-2.52;100.0
64025;BME280;50266;57.446;26.936;2023-03-16T02:02:12;99172.83;;;-2.57;100.0
64025;BME280;50266;57.446;26.936;2023-03-16T02:03:13;99168.86;;;-2.53;100.0
64025;BME280;50266;57.446;26.936;2023-03-16T02:05:18;99172.47;;;-2.49;100.0
64025;BME280;50266;57.446;26.936;2023-03-16T02:06:19;99174.27;;;-2.55;100.0
64025;BME280;50266;57.446;26.936;2023-03-16T02:07:16;99172.05;;;-2.5;100.0
64025;BME280;50266;57.446;26.936;2023-03-16T02:08:16;99173.28;;;-2.55;100.0
64025;BME280;50266;57.446;26.936;2023-03-16T02:09:16;99176.8;;;-2.58;100.0
64025;BME280;50266;57.446;26.936;2023-03-16T02:10:17;99171.25;;;-2.6;100.0
64025;BME280;50266;57.446;26.936;2023-03-16T02:11:16;99176.79;;;-2.54;100.0
64025;BME280;50266;57.446;26.936;2023-03-16T02:12:16;99177.45;;;-2.58;100.0
64025;BME280;50266;57.446;26.936;2023-03-16T02:13:16;99182.83;;;-2.56;100.0
64025;BME280;50266;57.446;26.936;2023-03-16T02:14:16;99181.97;;;-2.59;100.0
64025;BME280;50266;57.446;26.936;2023-03-16T02:15:16;99185.71;;;-2.65;100.0
64025;BME280;50266;57.446;26.936;2023-03-16T02:16:16;99185.29;;;-2.63;100.0
64025;BME280;50266;57.446;26.936;2023-03-16T02:17:20;99180.32;;;-2.64;100.0
64025;BME280;50266;57.446;26.936;2023-03-16T02:18:16;99179.06;;;-2.66;100.0
64025;BME280;50266;57.446;26.936;2023-03-16T02:19:26;99178.2;;;-2.71;100.0
64025;BME280;50266;57.446;26.936;2023-03-16T02:22:23;99178.38;;;-2.75;100.0
64025;BME280;50266;57.446;26.936;2023-03-16T02:23:24;99175.72;;;-2.81;100.0
64025;BME280;50266;57.446;26.936;2023-03-16T02:24:23;99174.27;;;-2.75;100.0
64025;BME280;50266;57.446;26.936;2023-03-16T02:25:36;99174.84;;;-2.71;100.0
64025;BME280;50266;57.446;26.936;2023-03-16T02:26:29;99178.88;;;-2.69;100.0
64025;BME280;50266;57.446;26.936;2023-03-16T02:29:44;99180.44;;;-2.64;100.0
64025;BME280;50266;57.446;26.936;2023-03-16T02:30:37;99179.88;;;-2.71;100.0
64025;BME280;50266;57.446;26.936;2023-03-16T02:31:37;99177.15;;;-2.68;100.0
64025;BME280;50266;57.446;26.936;2023-03-16T02:32:37;99178.75;;;-2.74;100.0
64025;BME280;50266;57.446;26.936;2023-03-16T02:33:37;99176.91;;;-2.71;100.0
64025;BME280;50266;57.446;26.936;2023-03-16T02:34:37;99174.66;;;-2.73;100.0
64025;BME280;50266;57.446;26.936;2023-03-16T02:35:37;99174.97;;;-2.72;100.0
64025;BME280;50266;57.446;26.936;2023-03-16T02:36:37;99177.3;;;-2.72;100.0
64025;BME280;50266;57.446;26.936;2023-03-16T02:37:38;99176.06;;;-2.79;100.0
64025;BME280;50266;57.446;26.936;2023-03-16T02:38:37;99181.39;;;-2.8;100.0
64025;BME280;50266;57.446;26.936;2023-03-16T02:39:37;99187.17;;;-2.79;100.0
64025;BME280;50266;57.446;26.936;2023-03-16T02:40:37;99185.89;;;-2.74;100.0
64025;BME280;50266;57.446;26.936;2023-03-16T02:41:37;99184.11;;;-2.71;100.0
64025;BME280;50266;57.446;26.936;2023-03-16T02:42:37;99183.44;;;-2.73;100.0
64025;BME280;50266;57.446;26.936;2023-03-16T02:43:38;99185.77;;;-2.73;100.0
64025;BME280;50266;57.446;26.936;2023-03-16T02:44:37;99184.11;;;-2.74;100.0
64025;BME280;50266;57.446;26.936;2023-03-16T02:45:42;99189.5;;;-2.7;100.0
64025;BME280;50266;57.446;26.936;2023-03-16T02:46:40;99191.06;;;-2.72;100.0
64025;BME280;50266;57.446;26.936;2023-03-16T02:47:42;99188.23;;;-2.75;100.0
64025;BME280;50266;57.446;26.936;2023-03-16T02:48:44;99191.93;;;-2.75;100.0
64025;BME280;50266;57.446;26.936;2023-03-16T02:49:43;99190.0;;;-2.8;100.0
64025;BME280;50266;57.446;26.936;2023-03-16T02:50:43;99192.83;;;-2.74;100.0
64025;BME280;50266;57.446;26.936;2023-03-16T02:51:43;99194.19;;;-2.74;100.0
64025;BME280;50266;57.446;26.936;2023-03-16T02:52:42;99192.72;;;-2.78;100.0
64025;BME280;50266;57.446;26.936;2023-03-16T02:53:42;99188.49;;;-2.77;100.0
64025;BME280;50266;57.446;26.936;2023-03-16T02:54:42;99193.8;;;-2.8;100.0
64025;BME280;50266;57.446;26.936;2023-03-16T02:55:42;99188.92;;;-2.77;100.0
64025;BME280;50266;57.446;26.936;2023-03-16T02:56:42;99188.23;;;-2.78;100.0
64025;BME280;50266;57.446;26.936;2023-03-16T02:57:42;99191.68;;;-2.8;100.0
64025;BME280;50266;57.446;26.936;2023-03-16T02:58:42;99191.09;;;-2.71;100.0
64025;BME280;50266;57.446;26.936;2023-03-16T02:59:42;99192.23;;;-2.77;100.0
64025;BME280;50266;57.446;26.936;2023-03-16T03:00:42;99191.04;;;-2.77;100.0
64025;BME280;50266;57.446;26.936;2023-03-16T03:01:42;99193.7;;;-2.77;100.0
64025;BME280;50266;57.446;26.936;2023-03-16T03:02:43;99189.0;;;-2.75;100.0
64025;BME280;50266;57.446;26.936;2023-03-16T03:03:42;99191.28;;;-2.68;100.0
64025;BME280;50266;57.446;26.936;2023-03-16T03:04:42;99197.16;;;-2.74;100.0
64025;BME280;50266;57.446;26.936;2023-03-16T03:05:43;99196.75;;;-2.79;100.0
64025;BME280;50266;57.446;26.936;2023-03-16T03:06:43;99199.84;;;-2.76;100.0
64025;BME280;50266;57.446;26.936;2023-03-16T03:07:43;99200.62;;;-2.73;100.0
64025;BME280;50266;57.446;26.936;2023-03-16T03:08:43;99199.28;;;-2.78;100.0
64025;BME280;50266;57.446;26.936;2023-03-16T03:09:43;99202.38;;;-2.81;100.0
64025;BME280;50266;57.446;26.936;2023-03-16T03:10:43;99200.0;;;-2.81;100.0
64025;BME280;50266;57.446;26.936;2023-03-16T03:11:43;99200.47;;;-2.74;100.0
64025;BME280;50266;57.446;26.936;2023-03-16T03:12:43;99202.78;;;-2.79;100.0
64025;BME280;50266;57.446;26.936;2023-03-16T03:13:43;99201.73;;;-2.78;100.0
64025;BME280;50266;57.446;26.936;2023-03-16T03:14:43;99201.61;;;-2.84;100.0
64025;BME280;50266;57.446;26.936;2023-03-16T03:15:43;99208.77;;;-2.84;100.0
64025;BME280;50266;57.446;26.936;2023-03-16T03:16:43;99205.67;;;-2.81;100.0
64025;BME280;50266;57.446;26.936;2023-03-16T03:17:43;99206.8;;;-2.77;100.0
64025;BME280;50266;57.446;26.936;2023-03-16T03:18:43;99202.28;;;-2.79;100.0
64025;BME280;50266;57.446;26.936;2023-03-16T03:19:43;99208.22;;;-2.81;100.0
64025;BME280;50266;57.446;26.936;2023-03-16T03:20:43;99203.67;;;-2.81;100.0
64025;BME280;50266;57.446;26.936;2023-03-16T03:21:43;99204.2;;;-2.77;100.0
64025;BME280;50266;57.446;26.936;2023-03-16T03:22:43;99205.25;;;-2.78;100.0
64025;BME280;50266;57.446;26.936;2023-03-16T03:23:43;99207.69;;;-2.78;100.0
64025;BME280;50266;57.446;26.936;2023-03-16T03:24:43;99209.83;;;-2.73;100.0
64025;BME280;50266;57.446;26.936;2023-03-16T03:25:43;99209.02;;;-2.8;100.0
64025;BME280;50266;57.446;26.936;2023-03-16T03:26:43;99211.43;;;-2.82;100.0
64025;BME280;50266;57.446;26.936;2023-03-16T03:27:43;99210.0;;;-2.77;100.0
64025;BME280;50266;57.446;26.936;2023-03-16T03:28:43;99214.86;;;-2.8;100.0
64025;BME280;50266;57.446;26.936;2023-03-16T03:29:43;99210.98;;;-2.81;100.0
64025;BME280;50266;57.446;26.936;2023-03-16T03:30:43;99214.05;;;-2.72;100.0
64025;BME280;50266;57.446;26.936;2023-03-16T03:31:43;99214.67;;;-2.81;100.0
64025;BME280;50266;57.446;26.936;2023-03-16T03:32:43;99210.0;;;-2.8;100.0
64025;BME280;50266;57.446;26.936;2023-03-16T03:33:43;99205.12;;;-2.84;100.0
64025;BME280;50266;57.446;26.936;2023-03-16T03:34:43;99204.16;;;-2.87;100.0
64025;BME280;50266;57.446;26.936;2023-03-16T03:35:43;99206.52;;;-2.86;100.0
64025;BME280;50266;57.446;26.936;2023-03-16T03:36:43;99208.86;;;-2.95;100.0
64025;BME280;50266;57.446;26.936;2023-03-16T03:37:43;99204.55;;;-2.93;100.0
64025;BME280;50266;57.446;26.936;2023-03-16T03:38:43;99203.67;;;-2.85;100.0
64025;BME280;50266;57.446;26.936;2023-03-16T03:39:43;99205.77;;;-2.89;100.0
64025;BME280;50266;57.446;26.936;2023-03-16T03:40:43;99210.69;;;-2.91;100.0
64025;BME280;50266;57.446;26.936;2023-03-16T03:41:43;99210.28;;;-2.92;100.0
64025;BME280;50266;57.446;26.936;2023-03-16T03:42:43;99210.68;;;-2.9;100.0
64025;BME280;50266;57.446;26.936;2023-03-16T03:43:43;99213.44;;;-2.97;100.0
64025;BME280;50266;57.446;26.936;2023-03-16T03:44:43;99214.84;;;-3.0;100.0
64025;BME280;50266;57.446;26.936;2023-03-16T03:45:43;99213.31;;;-2.99;100.0
64025;BME280;50266;57.446;26.936;2023-03-16T03:46:43;99213.41;;;-3.02;100.0
64025;BME280;50266;57.446;26.936;2023-03-16T03:47:43;99215.31;;;-2.96;100.0
64025;BME280;50266;57.446;26.936;2023-03-16T03:48:43;99216.97;;;-2.98;100.0
64025;BME280;50266;57.446;26.936;2023-03-16T03:49:43;99218.95;;;-2.99;100.0
64025;BME280;50266;57.446;26.936;2023-03-16T03:50:43;99216.81;;;-3.05;100.0
64025;BME280;50266;57.446;26.936;2023-03-16T03:51:43;99219.23;;;-3.03;100.0
64025;BME280;50266;57.446;26.936;2023-03-16T03:52:44;99220.91;;;-3.04;100.0
64025;BME280;50266;57.446;26.936;2023-03-16T03:53:44;99218.7;;;-3.05;100.0
64025;BME280;50266;57.446;26.936;2023-03-16T03:54:44;99221.57;;;-3.08;100.0
64025;BME280;50266;57.446;26.936;2023-03-16T03:55:44;99224.73;;;-3.1;100.0
64025;BME280;50266;57.446;26.936;2023-03-16T03:56:44;99223.2;;;-3.14;100.0
64025;BME280;50266;57.446;26.936;2023-03-16T03:57:44;99225.06;;;-3.15;100.0
64025;BME280;50266;57.446;26.936;2023-03-16T03:58:44;99224.14;;;-3.15;100.0
64025;BME280;50266;57.446;26.936;2023-03-16T03:59:44;99226.61;;;-3.13;100.0
64025;BME280;50266;57.446;26.936;2023-03-16T04:00:44;99226.25;;;-3.11;100.0
64025;BME280;50266;57.446;26.936;2023-03-16T04:01:44;99230.98;;;-3.13;100.0
64025;BME280;50266;57.446;26.936;2023-03-16T04:02:44;99227.33;;;-3.15;100.0
64025;BME280;50266;57.446;26.936;2023-03-16T04:03:44;99230.55;;;-3.19;100.0
64025;BME280;50266;57.446;26.936;2023-03-16T04:04:44;99226.7;;;-3.2;100.0
64025;BME280;50266;57.446;26.936;2023-03-16T04:05:44;99227.39;;;-3.18;100.0
64025;BME280;50266;57.446;26.936;2023-03-16T04:06:44;99230.77;;;-3.23;100.0
64025;BME280;50266;57.446;26.936;2023-03-16T04:07:44;99230.45;;;-3.2;100.0
64025;BME280;50266;57.446;26.936;2023-03-16T04:08:44;99230.92;;;-3.23;100.0
64025;BME280;50266;57.446;26.936;2023-03-16T04:09:44;99235.02;;;-3.25;100.0
64025;BME280;50266;57.446;26.936;2023-03-16T04:10:44;99228.72;;;-3.21;100.0
64025;BME280;50266;57.446;26.936;2023-03-16T04:11:44;99233.66;;;-3.25;100.0
64025;BME280;50266;57.446;26.936;2023-03-16T04:12:44;99236.97;;;-3.26;100.0
64025;BME280;50266;57.446;26.936;2023-03-16T04:13:44;99232.05;;;-3.3;100.0
64025;BME280;50266;57.446;26.936;2023-03-16T04:14:44;99235.58;;;-3.33;100.0
64025;BME280;50266;57.446;26.936;2023-03-16T04:15:44;99236.98;;;-3.31;100.0
64025;BME280;50266;57.446;26.936;2023-03-16T04:16:44;99235.9;;;-3.26;100.0
64025;BME280;50266;57.446;26.936;2023-03-16T04:17:44;99239.78;;;-3.22;100.0
64025;BME280;50266;57.446;26.936;2023-03-16T04:18:44;99240.68;;;-3.24;100.0
64025;BME280;50266;57.446;26.936;2023-03-16T04:19:44;99240.79;;;-3.28;100.0
64025;BME280;50266;57.446;26.936;2023-03-16T04:20:44;99243.89;;;-3.29;100.0
64025;BME280;50266;57.446;26.936;2023-03-16T04:21:44;99240.33;;;-3.3;100.0
64025;BME280;50266;57.446;26.936;2023-03-16T04:22:45;99241.78;;;-3.35;100.0
64025;BME280;50266;57.446;26.936;2023-03-16T04:23:44;99237.26;;;-3.44;100.0
64025;BME280;50266;57.446;26.936;2023-03-16T04:24:44;99238.91;;;-3.47;100.0
64025;BME280;50266;57.446;26.936;2023-03-16T04:25:44;99238.69;;;-3.47;100.0
64025;BME280;50266;57.446;26.936;2023-03-16T04:26:44;99239.16;;;-3.49;100.0
64025;BME280;50266;57.446;26.936;2023-03-16T04:27:44;99241.41;;;-3.52;100.0
64025;BME280;50266;57.446;26.936;2023-03-16T04:28:44;99242.88;;;-3.53;100.0
64025;BME280;50266;57.446;26.936;2023-03-16T04:29:44;99241.0;;;-3.45;100.0
64025;BME280;50266;57.446;26.936;2023-03-16T04:30:44;99245.75;;;-3.44;100.0
64025;BME280;50266;57.446;26.936;2023-03-16T04:31:44;99248.0;;;-3.47;100.0
64025;BME280;50266;57.446;26.936;2023-03-16T04:32:44;99249.49;;;-3.59;100.0
64025;BME280;50266;57.446;26.936;2023-03-16T04:33:44;99248.37;;;-3.5;100.0
64025;BME280;50266;57.446;26.936;2023-03-16T04:34:44;99249.42;;;-3.48;100.0
64025;BME280;50266;57.446;26.936;2023-03-16T04:35:44;99247.53;;;-3.48;100.0
64025;BME280;50266;57.446;26.936;2023-03-16T04:36:44;99250.52;;;-3.44;100.0
64025;BME280;50266;57.446;26.936;2023-03-16T04:37:44;99252.98;;;-3.43;100.0
64025;BME280;50266;57.446;26.936;2023-03-16T04:38:45;99255.3;;;-3.46;100.0
64025;BME280;50266;57.446;26.936;2023-03-16T04:39:45;99251.38;;;-3.4;100.0
64025;BME280;50266;57.446;26.936;2023-03-16T04:40:45;99254.11;;;-3.46;100.0
64025;BME280;50266;57.446;26.936;2023-03-16T04:41:45;99257.74;;;-3.57;100.0
64025;BME280;50266;57.446;26.936;2023-03-16T04:42:45;99251.69;;;-3.57;100.0
64025;BME280;50266;57.446;26.936;2023-03-16T04:43:45;99252.02;;;-3.54;100.0
64025;BME280;50266;57.446;26.936;2023-03-16T04:44:45;99254.52;;;-3.48;100.0
64025;BME280;50266;57.446;26.936;2023-03-16T04:45:45;99254.61;;;-3.61;100.0
64025;BME280;50266;57.446;26.936;2023-03-16T04:46:45;99254.81;;;-3.7;100.0
64025;BME280;50266;57.446;26.936;2023-03-16T04:47:45;99261.69;;;-3.69;100.0
64025;BME280;50266;57.446;26.936;2023-03-16T04:48:45;99260.48;;;-3.75;100.0
64025;BME280;50266;57.446;26.936;2023-03-16T04:49:45;99258.39;;;-3.7;100.0
64025;BME280;50266;57.446;26.936;2023-03-16T04:50:46;99259.48;;;-3.82;100.0
64025;BME280;50266;57.446;26.936;2023-03-16T04:51:45;99260.11;;;-3.76;100.0
64025;BME280;50266;57.446;26.936;2023-03-16T04:52:45;99268.51;;;-3.91;100.0
64025;BME280;50266;57.446;26.936;2023-03-16T04:53:45;99265.98;;;-3.77;100.0
64025;BME280;50266;57.446;26.936;2023-03-16T04:54:45;99267.78;;;-3.74;100.0
64025;BME280;50266;57.446;26.936;2023-03-16T04:55:45;99269.94;;;-3.59;100.0
64025;BME280;50266;57.446;26.936;2023-03-16T04:56:45;99268.52;;;-3.53;100.0
64025;BME280;50266;57.446;26.936;2023-03-16T04:57:45;99269.67;;;-3.44;100.0
64025;BME280;50266;57.446;26.936;2023-03-16T04:58:48;99270.11;;;-3.36;100.0
64025;BME280;50266;57.446;26.936;2023-03-16T04:59:45;99275.89;;;-3.39;100.0
64025;BME280;50266;57.446;26.936;2023-03-16T05:00:45;99277.91;;;-3.45;100.0
64025;BME280;50266;57.446;26.936;2023-03-16T05:01:45;99276.98;;;-3.36;100.0
64025;BME280;50266;57.446;26.936;2023-03-16T05:02:45;99276.92;;;-3.44;100.0
64025;BME280;50266;57.446;26.936;2023-03-16T05:03:45;99281.23;;;-3.47;100.0
64025;BME280;50266;57.446;26.936;2023-03-16T05:04:45;99285.44;;;-3.36;100.0
64025;BME280;50266;57.446;26.936;2023-03-16T05:05:45;99280.07;;;-3.26;100.0
64025;BME280;50266;57.446;26.936;2023-03-16T05:06:45;99281.09;;;-3.3;100.0
64025;BME280;50266;57.446;26.936;2023-03-16T05:07:45;99278.09;;;-3.42;100.0
64025;BME280;50266;57.446;26.936;2023-03-16T05:08:45;99289.08;;;-3.42;100.0
64025;BME280;50266;57.446;26.936;2023-03-16T05:09:45;99287.97;;;-3.4;100.0
64025;BME280;50266;57.446;26.936;2023-03-16T05:10:45;99286.0;;;-3.48;100.0
64025;BME280;50266;57.446;26.936;2023-03-16T05:11:45;99292.24;;;-3.4;100.0
64025;BME280;50266;57.446;26.936;2023-03-16T05:12:45;99289.58;;;-3.29;100.0
64025;BME280;50266;57.446;26.936;2023-03-16T05:13:45;99290.28;;;-3.25;100.0
64025;BME280;50266;57.446;26.936;2023-03-16T05:14:45;99294.56;;;-3.17;100.0
64025;BME280;50266;57.446;26.936;2023-03-16T05:15:45;99293.27;;;-3.14;100.0
64025;BME280;50266;57.446;26.936;2023-03-16T05:16:45;99294.8;;;-3.09;100.0
64025;BME280;50266;57.446;26.936;2023-03-16T05:17:45;99293.47;;;-3.07;100.0
64025;BME280;50266;57.446;26.936;2023-03-16T05:18:45;99299.36;;;-3.02;100.0
64025;BME280;50266;57.446;26.936;2023-03-16T05:19:45;99301.41;;;-2.97;100.0
64025;BME280;50266;57.446;26.936;2023-03-16T05:20:48;99300.91;;;-2.88;100.0
64025;BME280;50266;57.446;26.936;2023-03-16T05:21:45;99304.77;;;-2.8;100.0